sensor_id;sensor_type;location;lat;lon;timestamp;P1;durP1;ratioP1;P2;durP2;ratioP2
22064;SDS011;11197;53.110;8.468;2023-04-25T00:01:31;18.58;;;4.22;;
22064;SDS011;11197;53.110;8.468;2023-04-25T00:04:01;21.83;;;5.07;;
22064;SDS011;11197;53.110;8.468;2023-04-25T00:06:28;15.30;;;4.05;;
22064;SDS011;11197;53.110;8.468;2023-04-25T00:08:55;22.92;;;4.18;;
22064;SDS011;11197;53.110;8.468;2023-04-25T00:11:21;22.77;;;4.18;;
22064;SDS011;11197;53.110;8.468;2023-04-25T00:13:48;20.90;;;4.00;;
22064;SDS011;11197;53.110;8.468;2023-04-25T00:16:14;20.40;;;4.28;;
22064;SDS011;11197;53.110;8.468;2023-04-25T00:18:43;20.30;;;4.00;;
22064;SDS011;11197;53.110;8.468;2023-04-25T00:23:37;20.45;;;4.15;;
22064;SDS011;11197;53.110;8.468;2023-04-25T00:26:03;21.90;;;4.30;;
22064;SDS011;11197;53.110;8.468;2023-04-25T00:28:29;16.90;;;3.78;;
22064;SDS011;11197;53.110;8.468;2023-04-25T00:30:55;16.58;;;4.25;;
22064;SDS011;11197;53.110;8.468;2023-04-25T00:33:21;19.98;;;4.50;;
22064;SDS011;11197;53.110;8.468;2023-04-25T00:35:47;22.17;;;4.40;;
22064;SDS011;11197;53.110;8.468;2023-04-25T00:38:13;25.17;;;4.82;;
22064;SDS011;11197;53.110;8.468;2023-04-25T00:40:41;19.65;;;3.83;;
22064;SDS011;11197;53.110;8.468;2023-04-25T00:43:09;18.10;;;4.18;;
22064;SDS011;11197;53.110;8.468;2023-04-25T00:45:34;22.10;;;4.00;;
22064;SDS011;11197;53.110;8.468;2023-04-25T00:48:04;21.02;;;4.00;;
22064;SDS011;11197;53.110;8.468;2023-04-25T00:50:30;27.85;;;4.65;;
22064;SDS011;11197;53.110;8.468;2023-04-25T00:55:30;20.58;;;4.35;;
22064;SDS011;11197;53.110;8.468;2023-04-25T00:58:01;22.20;;;4.35;;
22064;SDS011;11197;53.110;8.468;2023-04-25T01:00:27;19.00;;;4.30;;
22064;SDS011;11197;53.110;8.468;2023-04-25T01:02:56;23.10;;;4.10;;
22064;SDS011;11197;53.110;8.468;2023-04-25T01:05:21;15.02;;;3.85;;
22064;SDS011;11197;53.110;8.468;2023-04-25T01:07:47;22.83;;;4.50;;
22064;SDS011;11197;53.110;8.468;2023-04-25T01:10:13;19.27;;;4.13;;
22064;SDS011;11197;53.110;8.468;2023-04-25T01:12:40;20.00;;;4.53;;
22064;SDS011;11197;53.110;8.468;2023-04-25T01:15:06;28.38;;;4.32;;
22064;SDS011;11197;53.110;8.468;2023-04-25T01:17:33;22.48;;;4.00;;
22064;SDS011;11197;53.110;8.468;2023-04-25T01:20:01;22.83;;;4.03;;
22064;SDS011;11197;53.110;8.468;2023-04-25T01:22:28;18.60;;;3.97;;
22064;SDS011;11197;53.110;8.468;2023-04-25T01:24:54;20.98;;;4.10;;
22064;SDS011;11197;53.110;8.468;2023-04-25T01:27:21;21.02;;;4.85;;
22064;SDS011;11197;53.110;8.468;2023-04-25T01:29:48;20.67;;;4.25;;
22064;SDS011;11197;53.110;8.468;2023-04-25T01:32:18;20.60;;;4.45;;
22064;SDS011;11197;53.110;8.468;2023-04-25T01:34:45;18.40;;;4.80;;
22064;SDS011;11197;53.110;8.468;2023-04-25T01:37:11;23.48;;;4.60;;
22064;SDS011;11197;53.110;8.468;2023-04-25T01:39:37;22.08;;;4.00;;
22064;SDS011;11197;53.110;8.468;2023-04-25T01:42:04;17.35;;;3.72;;
22064;SDS011;11197;53.110;8.468;2023-04-25T01:44:30;19.52;;;4.47;;
22064;SDS011;11197;53.110;8.468;2023-04-25T01:46:56;19.75;;;4.13;;
22064;SDS011;11197;53.110;8.468;2023-04-25T01:49:22;19.13;;;3.60;;
22064;SDS011;11197;53.110;8.468;2023-04-25T01:51:48;18.92;;;3.85;;
22064;SDS011;11197;53.110;8.468;2023-04-25T01:54:14;26.98;;;4.75;;
22064;SDS011;11197;53.110;8.468;2023-04-25T01:56:40;19.58;;;4.25;;
22064;SDS011;11197;53.110;8.468;2023-04-25T01:59:09;20.52;;;4.18;;
22064;SDS011;11197;53.110;8.468;2023-04-25T02:01:53;19.80;;;4.20;;
22064;SDS011;11197;53.110;8.468;2023-04-25T02:04:27;17.45;;;3.97;;
22064;SDS011;11197;53.110;8.468;2023-04-25T02:06:52;20.85;;;4.15;;
22064;SDS011;11197;53.110;8.468;2023-04-25T02:09:18;21.20;;;4.43;;
22064;SDS011;11197;53.110;8.468;2023-04-25T02:11:50;15.98;;;3.63;;
22064;SDS011;11197;53.110;8.468;2023-04-25T02:14:51;20.88;;;4.65;;
22064;SDS011;11197;53.110;8.468;2023-04-25T02:17:31;17.33;;;3.70;;
22064;SDS011;11197;53.110;8.468;2023-04-25T02:19:57;25.75;;;4.50;;
22064;SDS011;11197;53.110;8.468;2023-04-25T02:22:23;17.45;;;3.65;;
22064;SDS011;11197;53.110;8.468;2023-04-25T02:24:49;14.13;;;3.45;;
22064;SDS011;11197;53.110;8.468;2023-04-25T02:27:15;19.73;;;4.00;;
22064;SDS011;11197;53.110;8.468;2023-04-25T02:29:40;19.30;;;4.10;;
22064;SDS011;11197;53.110;8.468;2023-04-25T02:32:10;15.13;;;3.95;;
22064;SDS011;11197;53.110;8.468;2023-04-25T02:34:35;19.52;;;4.05;;
22064;SDS011;11197;53.110;8.468;2023-04-25T02:37:01;16.05;;;4.07;;
22064;SDS011;11197;53.110;8.468;2023-04-25T02:39:27;20.55;;;3.65;;
22064;SDS011;11197;53.110;8.468;2023-04-25T02:41:54;18.85;;;4.38;;
22064;SDS011;11197;53.110;8.468;2023-04-25T02:44:20;18.33;;;3.88;;
22064;SDS011;11197;53.110;8.468;2023-04-25T02:46:46;21.58;;;4.28;;
22064;SDS011;11197;53.110;8.468;2023-04-25T02:49:12;17.40;;;3.88;;
22064;SDS011;11197;53.110;8.468;2023-04-25T02:51:38;20.48;;;4.00;;
22064;SDS011;11197;53.110;8.468;2023-04-25T02:54:04;18.05;;;3.95;;
22064;SDS011;11197;53.110;8.468;2023-04-25T02:56:34;18.90;;;4.15;;
22064;SDS011;11197;53.110;8.468;2023-04-25T02:59:00;18.52;;;4.15;;
22064;SDS011;11197;53.110;8.468;2023-04-25T03:01:26;21.13;;;3.75;;
22064;SDS011;11197;53.110;8.468;2023-04-25T03:03:52;19.70;;;4.18;;
22064;SDS011;11197;53.110;8.468;2023-04-25T03:06:18;17.80;;;3.80;;
22064;SDS011;11197;53.110;8.468;2023-04-25T03:08:43;14.90;;;3.50;;
22064;SDS011;11197;53.110;8.468;2023-04-25T03:11:09;15.23;;;3.20;;
22064;SDS011;11197;53.110;8.468;2023-04-25T03:13:35;17.33;;;3.40;;
22064;SDS011;11197;53.110;8.468;2023-04-25T03:16:01;21.80;;;3.58;;
22064;SDS011;11197;53.110;8.468;2023-04-25T03:18:28;17.42;;;4.15;;
22064;SDS011;11197;53.110;8.468;2023-04-25T03:20:54;22.33;;;3.58;;
22064;SDS011;11197;53.110;8.468;2023-04-25T03:23:20;16.17;;;3.65;;
22064;SDS011;11197;53.110;8.468;2023-04-25T03:25:46;20.40;;;3.95;;
22064;SDS011;11197;53.110;8.468;2023-04-25T03:28:12;22.52;;;3.55;;
22064;SDS011;11197;53.110;8.468;2023-04-25T03:30:38;17.17;;;3.42;;
22064;SDS011;11197;53.110;8.468;2023-04-25T03:33:04;16.70;;;3.80;;
22064;SDS011;11197;53.110;8.468;2023-04-25T03:35:30;21.05;;;3.88;;
22064;SDS011;11197;53.110;8.468;2023-04-25T03:37:56;17.60;;;4.47;;
22064;SDS011;11197;53.110;8.468;2023-04-25T03:40:32;16.35;;;3.78;;
22064;SDS011;11197;53.110;8.468;2023-04-25T03:43:14;17.55;;;3.38;;
22064;SDS011;11197;53.110;8.468;2023-04-25T03:45:46;16.52;;;3.40;;
22064;SDS011;11197;53.110;8.468;2023-04-25T03:48:11;19.95;;;3.55;;
22064;SDS011;11197;53.110;8.468;2023-04-25T03:50:37;18.98;;;3.42;;
22064;SDS011;11197;53.110;8.468;2023-04-25T03:53:04;18.50;;;3.45;;
22064;SDS011;11197;53.110;8.468;2023-04-25T03:55:42;20.73;;;4.05;;
22064;SDS011;11197;53.110;8.468;2023-04-25T03:58:08;15.48;;;3.15;;
22064;SDS011;11197;53.110;8.468;2023-04-25T04:00:35;16.83;;;3.17;;
22064;SDS011;11197;53.110;8.468;2023-04-25T04:03:01;18.40;;;3.45;;
22064;SDS011;11197;53.110;8.468;2023-04-25T04:05:27;16.42;;;3.13;;
22064;SDS011;11197;53.110;8.468;2023-04-25T04:07:55;13.80;;;3.35;;
22064;SDS011;11197;53.110;8.468;2023-04-25T04:10:22;15.32;;;3.20;;
22064;SDS011;11197;53.110;8.468;2023-04-25T04:12:48;17.73;;;3.28;;
22064;SDS011;11197;53.110;8.468;2023-04-25T04:15:14;16.10;;;3.53;;
22064;SDS011;11197;53.110;8.468;2023-04-25T04:17:45;17.98;;;3.55;;
22064;SDS011;11197;53.110;8.468;2023-04-25T04:20:12;13.68;;;3.40;;
22064;SDS011;11197;53.110;8.468;2023-04-25T04:22:39;16.88;;;3.15;;
22064;SDS011;11197;53.110;8.468;2023-04-25T04:25:08;16.88;;;3.08;;
22064;SDS011;11197;53.110;8.468;2023-04-25T04:28:06;17.17;;;3.20;;
22064;SDS011;11197;53.110;8.468;2023-04-25T04:30:45;15.65;;;3.20;;
22064;SDS011;11197;53.110;8.468;2023-04-25T04:33:14;19.77;;;3.13;;
22064;SDS011;11197;53.110;8.468;2023-04-25T04:35:41;20.52;;;3.47;;
22064;SDS011;11197;53.110;8.468;2023-04-25T04:38:09;14.50;;;2.90;;
22064;SDS011;11197;53.110;8.468;2023-04-25T04:40:35;17.20;;;3.10;;
22064;SDS011;11197;53.110;8.468;2023-04-25T04:43:16;11.35;;;2.70;;
22064;SDS011;11197;53.110;8.468;2023-04-25T04:46:02;16.95;;;3.38;;
22064;SDS011;11197;53.110;8.468;2023-04-25T04:48:52;14.18;;;3.13;;
22064;SDS011;11197;53.110;8.468;2023-04-25T04:51:37;15.40;;;2.95;;
22064;SDS011;11197;53.110;8.468;2023-04-25T04:54:35;12.20;;;3.00;;
22064;SDS011;11197;53.110;8.468;2023-04-25T04:57:24;12.93;;;2.90;;
22064;SDS011;11197;53.110;8.468;2023-04-25T05:00:00;12.68;;;2.63;;
22064;SDS011;11197;53.110;8.468;2023-04-25T05:02:45;13.02;;;2.88;;
22064;SDS011;11197;53.110;8.468;2023-04-25T05:05:26;13.43;;;2.67;;
22064;SDS011;11197;53.110;8.468;2023-04-25T05:08:14;14.52;;;2.67;;
22064;SDS011;11197;53.110;8.468;2023-04-25T05:11:00;18.40;;;2.42;;
22064;SDS011;11197;53.110;8.468;2023-04-25T05:13:37;14.05;;;2.80;;
22064;SDS011;11197;53.110;8.468;2023-04-25T05:16:23;12.27;;;2.45;;
22064;SDS011;11197;53.110;8.468;2023-04-25T05:19:14;15.57;;;2.58;;
22064;SDS011;11197;53.110;8.468;2023-04-25T05:21:50;18.42;;;3.03;;
22064;SDS011;11197;53.110;8.468;2023-04-25T05:24:36;16.77;;;2.88;;
22064;SDS011;11197;53.110;8.468;2023-04-25T05:27:34;13.15;;;2.72;;
22064;SDS011;11197;53.110;8.468;2023-04-25T05:30:07;12.40;;;2.33;;
22064;SDS011;11197;53.110;8.468;2023-04-25T05:32:45;15.48;;;2.80;;
22064;SDS011;11197;53.110;8.468;2023-04-25T05:35:12;11.13;;;2.20;;
22064;SDS011;11197;53.110;8.468;2023-04-25T05:37:43;12.55;;;2.28;;
22064;SDS011;11197;53.110;8.468;2023-04-25T05:40:11;19.17;;;2.45;;
22064;SDS011;11197;53.110;8.468;2023-04-25T05:42:43;11.60;;;2.45;;
22064;SDS011;11197;53.110;8.468;2023-04-25T05:45:28;12.82;;;2.60;;
22064;SDS011;11197;53.110;8.468;2023-04-25T05:48:08;12.55;;;2.30;;
22064;SDS011;11197;53.110;8.468;2023-04-25T05:50:56;10.50;;;2.22;;
22064;SDS011;11197;53.110;8.468;2023-04-25T05:53:41;11.30;;;2.38;;
22064;SDS011;11197;53.110;8.468;2023-04-25T05:56:07;14.73;;;2.80;;
22064;SDS011;11197;53.110;8.468;2023-04-25T05:58:33;13.68;;;2.53;;
22064;SDS011;11197;53.110;8.468;2023-04-25T06:00:59;16.73;;;2.47;;
22064;SDS011;11197;53.110;8.468;2023-04-25T06:03:26;13.68;;;2.25;;
22064;SDS011;11197;53.110;8.468;2023-04-25T06:05:51;10.48;;;2.10;;
22064;SDS011;11197;53.110;8.468;2023-04-25T06:08:18;12.65;;;2.38;;
22064;SDS011;11197;53.110;8.468;2023-04-25T06:10:45;13.13;;;2.22;;
22064;SDS011;11197;53.110;8.468;2023-04-25T06:13:10;14.45;;;2.20;;
22064;SDS011;11197;53.110;8.468;2023-04-25T06:15:38;9.15;;;2.20;;
22064;SDS011;11197;53.110;8.468;2023-04-25T06:18:04;12.43;;;2.28;;
22064;SDS011;11197;53.110;8.468;2023-04-25T06:20:30;12.95;;;2.50;;
22064;SDS011;11197;53.110;8.468;2023-04-25T06:22:58;12.75;;;2.10;;
22064;SDS011;11197;53.110;8.468;2023-04-25T06:25:44;11.25;;;2.05;;
22064;SDS011;11197;53.110;8.468;2023-04-25T06:28:11;10.15;;;1.90;;
22064;SDS011;11197;53.110;8.468;2023-04-25T06:30:36;11.43;;;1.95;;
22064;SDS011;11197;53.110;8.468;2023-04-25T06:33:07;14.85;;;2.13;;
22064;SDS011;11197;53.110;8.468;2023-04-25T06:35:34;12.05;;;1.95;;
22064;SDS011;11197;53.110;8.468;2023-04-25T06:38:00;10.13;;;1.90;;
22064;SDS011;11197;53.110;8.468;2023-04-25T06:40:27;13.57;;;2.40;;
22064;SDS011;11197;53.110;8.468;2023-04-25T06:42:54;10.63;;;1.95;;
22064;SDS011;11197;53.110;8.468;2023-04-25T06:45:33;11.02;;;2.10;;
22064;SDS011;11197;53.110;8.468;2023-04-25T06:47:58;12.10;;;2.55;;
22064;SDS011;11197;53.110;8.468;2023-04-25T06:50:24;11.07;;;2.10;;
22064;SDS011;11197;53.110;8.468;2023-04-25T06:52:51;11.52;;;1.80;;
22064;SDS011;11197;53.110;8.468;2023-04-25T06:55:18;12.50;;;1.90;;
22064;SDS011;11197;53.110;8.468;2023-04-25T06:58:05;12.05;;;2.08;;
22064;SDS011;11197;53.110;8.468;2023-04-25T07:00:50;10.88;;;1.90;;
22064;SDS011;11197;53.110;8.468;2023-04-25T07:03:18;11.27;;;2.10;;
22064;SDS011;11197;53.110;8.468;2023-04-25T07:05:45;10.00;;;1.83;;
22064;SDS011;11197;53.110;8.468;2023-04-25T07:08:11;12.30;;;2.00;;
22064;SDS011;11197;53.110;8.468;2023-04-25T07:10:37;10.32;;;1.92;;
22064;SDS011;11197;53.110;8.468;2023-04-25T07:13:03;9.80;;;2.15;;
22064;SDS011;11197;53.110;8.468;2023-04-25T07:15:29;11.32;;;2.03;;
22064;SDS011;11197;53.110;8.468;2023-04-25T07:17:57;10.82;;;1.77;;
22064;SDS011;11197;53.110;8.468;2023-04-25T07:20:22;14.82;;;2.10;;
22064;SDS011;11197;53.110;8.468;2023-04-25T07:22:49;11.30;;;1.73;;
22064;SDS011;11197;53.110;8.468;2023-04-25T07:25:15;11.88;;;1.88;;
22064;SDS011;11197;53.110;8.468;2023-04-25T07:27:42;11.60;;;2.28;;
22064;SDS011;11197;53.110;8.468;2023-04-25T07:30:13;17.40;;;2.08;;
22064;SDS011;11197;53.110;8.468;2023-04-25T07:32:39;13.23;;;2.00;;
22064;SDS011;11197;53.110;8.468;2023-04-25T07:35:05;10.90;;;2.03;;
22064;SDS011;11197;53.110;8.468;2023-04-25T07:37:33;10.15;;;1.83;;
22064;SDS011;11197;53.110;8.468;2023-04-25T07:40:08;12.77;;;2.08;;
22064;SDS011;11197;53.110;8.468;2023-04-25T07:42:37;10.57;;;1.42;;
22064;SDS011;11197;53.110;8.468;2023-04-25T07:45:04;8.05;;;1.42;;
22064;SDS011;11197;53.110;8.468;2023-04-25T07:47:30;11.82;;;2.08;;
22064;SDS011;11197;53.110;8.468;2023-04-25T07:49:59;7.97;;;1.70;;
22064;SDS011;11197;53.110;8.468;2023-04-25T07:52:25;9.73;;;1.58;;
22064;SDS011;11197;53.110;8.468;2023-04-25T07:55:00;10.63;;;1.88;;
22064;SDS011;11197;53.110;8.468;2023-04-25T07:57:36;9.40;;;1.85;;
22064;SDS011;11197;53.110;8.468;2023-04-25T08:00:04;11.98;;;1.92;;
22064;SDS011;11197;53.110;8.468;2023-04-25T08:02:39;12.25;;;1.77;;
22064;SDS011;11197;53.110;8.468;2023-04-25T08:05:07;9.85;;;1.70;;
22064;SDS011;11197;53.110;8.468;2023-04-25T08:10:05;8.00;;;1.60;;
22064;SDS011;11197;53.110;8.468;2023-04-25T08:12:32;7.40;;;1.15;;
22064;SDS011;11197;53.110;8.468;2023-04-25T08:14:59;7.47;;;1.58;;
22064;SDS011;11197;53.110;8.468;2023-04-25T08:17:30;8.13;;;1.35;;
22064;SDS011;11197;53.110;8.468;2023-04-25T08:19:56;3.95;;;1.02;;
22064;SDS011;11197;53.110;8.468;2023-04-25T08:22:28;3.72;;;0.90;;
22064;SDS011;11197;53.110;8.468;2023-04-25T08:25:12;5.80;;;1.13;;
22064;SDS011;11197;53.110;8.468;2023-04-25T08:27:39;3.70;;;1.10;;
22064;SDS011;11197;53.110;8.468;2023-04-25T08:30:06;5.68;;;1.25;;
22064;SDS011;11197;53.110;8.468;2023-04-25T08:32:35;6.05;;;1.23;;
22064;SDS011;11197;53.110;8.468;2023-04-25T08:35:35;5.22;;;1.67;;
22064;SDS011;11197;53.110;8.468;2023-04-25T08:38:02;17.85;;;9.30;;
22064;SDS011;11197;53.110;8.468;2023-04-25T08:40:28;6.88;;;2.83;;
22064;SDS011;11197;53.110;8.468;2023-04-25T08:43:02;10.68;;;1.63;;
22064;SDS011;11197;53.110;8.468;2023-04-25T08:45:31;10.75;;;1.70;;
22064;SDS011;11197;53.110;8.468;2023-04-25T08:47:58;12.23;;;1.75;;
22064;SDS011;11197;53.110;8.468;2023-04-25T08:50:26;9.57;;;2.00;;
22064;SDS011;11197;53.110;8.468;2023-04-25T08:52:53;10.35;;;1.80;;
22064;SDS011;11197;53.110;8.468;2023-04-25T08:55:20;12.05;;;1.65;;
22064;SDS011;11197;53.110;8.468;2023-04-25T08:57:49;9.27;;;1.60;;
22064;SDS011;11197;53.110;8.468;2023-04-25T09:00:16;7.80;;;1.35;;
22064;SDS011;11197;53.110;8.468;2023-04-25T09:02:45;9.15;;;2.28;;
22064;SDS011;11197;53.110;8.468;2023-04-25T09:05:13;7.88;;;1.55;;
22064;SDS011;11197;53.110;8.468;2023-04-25T09:07:39;7.20;;;1.25;;
22064;SDS011;11197;53.110;8.468;2023-04-25T09:10:06;10.88;;;3.60;;
22064;SDS011;11197;53.110;8.468;2023-04-25T09:12:35;5.95;;;2.10;;
22064;SDS011;11197;53.110;8.468;2023-04-25T09:17:56;6.57;;;2.60;;
22064;SDS011;11197;53.110;8.468;2023-04-25T09:20:25;8.10;;;2.65;;
22064;SDS011;11197;53.110;8.468;2023-04-25T09:23:01;4.85;;;1.50;;
22064;SDS011;11197;53.110;8.468;2023-04-25T09:25:37;6.03;;;1.58;;
22064;SDS011;11197;53.110;8.468;2023-04-25T09:28:06;5.85;;;1.75;;
22064;SDS011;11197;53.110;8.468;2023-04-25T09:30:34;7.20;;;1.33;;
22064;SDS011;11197;53.110;8.468;2023-04-25T09:33:09;5.35;;;1.20;;
22064;SDS011;11197;53.110;8.468;2023-04-25T09:35:41;6.70;;;1.55;;
22064;SDS011;11197;53.110;8.468;2023-04-25T09:38:15;7.00;;;1.70;;
22064;SDS011;11197;53.110;8.468;2023-04-25T09:41:10;7.57;;;1.80;;
22064;SDS011;11197;53.110;8.468;2023-04-25T09:43:40;8.50;;;1.97;;
22064;SDS011;11197;53.110;8.468;2023-04-25T09:46:11;7.90;;;1.50;;
22064;SDS011;11197;53.110;8.468;2023-04-25T09:48:41;10.63;;;1.50;;
22064;SDS011;11197;53.110;8.468;2023-04-25T09:51:14;6.47;;;1.60;;
22064;SDS011;11197;53.110;8.468;2023-04-25T09:53:43;10.68;;;1.80;;
22064;SDS011;11197;53.110;8.468;2023-04-25T09:56:22;7.63;;;1.80;;
22064;SDS011;11197;53.110;8.468;2023-04-25T09:58:50;4.32;;;1.08;;
22064;SDS011;11197;53.110;8.468;2023-04-25T10:01:18;7.90;;;1.15;;
22064;SDS011;11197;53.110;8.468;2023-04-25T10:03:59;4.35;;;1.23;;
22064;SDS011;11197;53.110;8.468;2023-04-25T10:06:40;5.47;;;1.40;;
22064;SDS011;11197;53.110;8.468;2023-04-25T10:09:08;6.43;;;1.52;;
22064;SDS011;11197;53.110;8.468;2023-04-25T10:11:35;6.82;;;1.20;;
22064;SDS011;11197;53.110;8.468;2023-04-25T10:14:03;6.30;;;1.30;;
22064;SDS011;11197;53.110;8.468;2023-04-25T10:16:33;7.82;;;1.38;;
22064;SDS011;11197;53.110;8.468;2023-04-25T10:19:00;5.28;;;1.10;;
22064;SDS011;11197;53.110;8.468;2023-04-25T10:21:27;5.97;;;1.08;;
22064;SDS011;11197;53.110;8.468;2023-04-25T10:23:56;5.40;;;1.70;;
22064;SDS011;11197;53.110;8.468;2023-04-25T10:26:22;4.15;;;1.40;;
22064;SDS011;11197;53.110;8.468;2023-04-25T10:28:59;4.63;;;1.00;;
22064;SDS011;11197;53.110;8.468;2023-04-25T10:31:27;4.88;;;1.00;;
22064;SDS011;11197;53.110;8.468;2023-04-25T10:33:55;8.32;;;0.88;;
22064;SDS011;11197;53.110;8.468;2023-04-25T10:36:22;5.20;;;1.10;;
22064;SDS011;11197;53.110;8.468;2023-04-25T10:38:50;6.07;;;1.00;;
22064;SDS011;11197;53.110;8.468;2023-04-25T10:41:20;8.25;;;1.67;;
22064;SDS011;11197;53.110;8.468;2023-04-25T10:43:48;5.07;;;0.90;;
22064;SDS011;11197;53.110;8.468;2023-04-25T10:48:47;8.75;;;1.40;;
22064;SDS011;11197;53.110;8.468;2023-04-25T10:51:18;8.35;;;1.38;;
22064;SDS011;11197;53.110;8.468;2023-04-25T10:53:46;7.18;;;1.38;;
22064;SDS011;11197;53.110;8.468;2023-04-25T10:59:07;7.25;;;1.23;;
22064;SDS011;11197;53.110;8.468;2023-04-25T11:04:16;7.00;;;1.30;;
22064;SDS011;11197;53.110;8.468;2023-04-25T11:09:45;6.55;;;1.63;;
22064;SDS011;11197;53.110;8.468;2023-04-25T11:12:11;8.23;;;1.50;;
22064;SDS011;11197;53.110;8.468;2023-04-25T11:14:38;8.50;;;1.30;;
22064;SDS011;11197;53.110;8.468;2023-04-25T11:17:04;8.50;;;1.70;;
22064;SDS011;11197;53.110;8.468;2023-04-25T11:19:31;6.47;;;1.38;;
22064;SDS011;11197;53.110;8.468;2023-04-25T11:21:58;5.53;;;1.20;;
22064;SDS011;11197;53.110;8.468;2023-04-25T11:24:29;7.25;;;1.40;;
22064;SDS011;11197;53.110;8.468;2023-04-25T11:27:04;6.40;;;1.20;;
22064;SDS011;11197;53.110;8.468;2023-04-25T11:29:34;8.25;;;1.58;;
22064;SDS011;11197;53.110;8.468;2023-04-25T11:32:00;8.27;;;1.45;;
22064;SDS011;11197;53.110;8.468;2023-04-25T11:34:29;7.88;;;1.52;;
22064;SDS011;11197;53.110;8.468;2023-04-25T11:36:56;5.40;;;1.13;;
22064;SDS011;11197;53.110;8.468;2023-04-25T11:39:23;7.18;;;1.20;;
22064;SDS011;11197;53.110;8.468;2023-04-25T11:41:50;8.45;;;1.40;;
22064;SDS011;11197;53.110;8.468;2023-04-25T11:44:17;10.63;;;1.60;;
22064;SDS011;11197;53.110;8.468;2023-04-25T11:46:44;8.13;;;1.25;;
22064;SDS011;11197;53.110;8.468;2023-04-25T11:49:10;7.53;;;1.45;;
22064;SDS011;11197;53.110;8.468;2023-04-25T11:51:40;8.02;;;1.50;;
22064;SDS011;11197;53.110;8.468;2023-04-25T11:54:10;4.93;;;0.98;;
22064;SDS011;11197;53.110;8.468;2023-04-25T11:56:37;6.70;;;1.00;;
22064;SDS011;11197;53.110;8.468;2023-04-25T11:59:07;7.20;;;1.33;;
22064;SDS011;11197;53.110;8.468;2023-04-25T12:01:37;6.25;;;1.20;;
22064;SDS011;11197;53.110;8.468;2023-04-25T12:04:17;6.45;;;1.27;;
22064;SDS011;11197;53.110;8.468;2023-04-25T12:06:48;4.75;;;1.20;;
22064;SDS011;11197;53.110;8.468;2023-04-25T12:09:17;6.68;;;1.20;;
22064;SDS011;11197;53.110;8.468;2023-04-25T12:11:44;6.78;;;1.30;;
22064;SDS011;11197;53.110;8.468;2023-04-25T12:14:12;6.13;;;1.23;;
22064;SDS011;11197;53.110;8.468;2023-04-25T12:16:47;7.70;;;1.42;;
22064;SDS011;11197;53.110;8.468;2023-04-25T12:19:14;10.25;;;1.42;;
22064;SDS011;11197;53.110;8.468;2023-04-25T12:21:42;7.43;;;1.35;;
22064;SDS011;11197;53.110;8.468;2023-04-25T12:26:52;5.55;;;1.50;;
22064;SDS011;11197;53.110;8.468;2023-04-25T12:29:23;7.43;;;1.55;;
22064;SDS011;11197;53.110;8.468;2023-04-25T12:31:50;6.40;;;1.30;;
22064;SDS011;11197;53.110;8.468;2023-04-25T12:34:17;7.18;;;1.15;;
22064;SDS011;11197;53.110;8.468;2023-04-25T12:36:44;8.32;;;1.40;;
22064;SDS011;11197;53.110;8.468;2023-04-25T12:39:20;6.05;;;1.40;;
22064;SDS011;11197;53.110;8.468;2023-04-25T12:41:48;7.35;;;1.20;;
22064;SDS011;11197;53.110;8.468;2023-04-25T12:44:14;8.02;;;1.58;;
22064;SDS011;11197;53.110;8.468;2023-04-25T12:46:41;7.40;;;1.15;;
22064;SDS011;11197;53.110;8.468;2023-04-25T12:49:07;6.95;;;1.50;;
22064;SDS011;11197;53.110;8.468;2023-04-25T12:51:33;10.75;;;1.65;;
22064;SDS011;11197;53.110;8.468;2023-04-25T12:54:00;8.88;;;1.38;;
22064;SDS011;11197;53.110;8.468;2023-04-25T12:56:26;6.25;;;1.42;;
22064;SDS011;11197;53.110;8.468;2023-04-25T12:58:53;7.53;;;1.60;;
22064;SDS011;11197;53.110;8.468;2023-04-25T13:01:19;9.32;;;1.23;;
22064;SDS011;11197;53.110;8.468;2023-04-25T13:03:46;6.88;;;1.73;;
22064;SDS011;11197;53.110;8.468;2023-04-25T13:06:13;8.45;;;1.40;;
22064;SDS011;11197;53.110;8.468;2023-04-25T13:08:40;6.03;;;1.50;;
22064;SDS011;11197;53.110;8.468;2023-04-25T13:11:07;6.75;;;1.35;;
22064;SDS011;11197;53.110;8.468;2023-04-25T13:13:33;9.90;;;1.33;;
22064;SDS011;11197;53.110;8.468;2023-04-25T13:16:03;6.97;;;1.52;;
22064;SDS011;11197;53.110;8.468;2023-04-25T13:18:30;8.30;;;1.40;;
22064;SDS011;11197;53.110;8.468;2023-04-25T13:20:56;8.02;;;1.52;;
22064;SDS011;11197;53.110;8.468;2023-04-25T13:23:24;3.92;;;1.15;;
22064;SDS011;11197;53.110;8.468;2023-04-25T13:25:51;3.03;;;0.80;;
22064;SDS011;11197;53.110;8.468;2023-04-25T13:28:17;3.60;;;0.80;;
22064;SDS011;11197;53.110;8.468;2023-04-25T13:30:43;2.83;;;0.80;;
22064;SDS011;11197;53.110;8.468;2023-04-25T13:33:09;5.82;;;0.80;;
22064;SDS011;11197;53.110;8.468;2023-04-25T13:35:36;3.83;;;0.77;;
22064;SDS011;11197;53.110;8.468;2023-04-25T13:38:02;4.70;;;0.90;;
22064;SDS011;11197;53.110;8.468;2023-04-25T13:40:28;3.53;;;1.00;;
22064;SDS011;11197;53.110;8.468;2023-04-25T13:42:55;3.20;;;1.00;;
22064;SDS011;11197;53.110;8.468;2023-04-25T13:45:21;5.47;;;0.85;;
22064;SDS011;11197;53.110;8.468;2023-04-25T13:47:46;6.28;;;1.23;;
22064;SDS011;11197;53.110;8.468;2023-04-25T13:50:13;9.00;;;1.17;;
22064;SDS011;11197;53.110;8.468;2023-04-25T13:52:40;6.03;;;1.48;;
22064;SDS011;11197;53.110;8.468;2023-04-25T13:55:06;4.63;;;1.13;;
22064;SDS011;11197;53.110;8.468;2023-04-25T13:57:34;7.05;;;1.92;;
22064;SDS011;11197;53.110;8.468;2023-04-25T14:00:00;7.00;;;1.52;;
22064;SDS011;11197;53.110;8.468;2023-04-25T14:02:31;7.18;;;1.45;;
22064;SDS011;11197;53.110;8.468;2023-04-25T14:04:57;7.65;;;1.27;;
22064;SDS011;11197;53.110;8.468;2023-04-25T14:07:23;10.43;;;1.80;;
22064;SDS011;11197;53.110;8.468;2023-04-25T14:09:50;5.30;;;1.40;;
22064;SDS011;11197;53.110;8.468;2023-04-25T14:12:15;6.93;;;1.70;;
22064;SDS011;11197;53.110;8.468;2023-04-25T14:14:41;5.93;;;1.30;;
22064;SDS011;11197;53.110;8.468;2023-04-25T14:17:08;6.57;;;1.20;;
22064;SDS011;11197;53.110;8.468;2023-04-25T14:19:34;5.68;;;0.98;;
22064;SDS011;11197;53.110;8.468;2023-04-25T14:22:00;5.45;;;1.10;;
22064;SDS011;11197;53.110;8.468;2023-04-25T14:24:26;7.57;;;1.27;;
22064;SDS011;11197;53.110;8.468;2023-04-25T14:26:52;6.38;;;1.08;;
22064;SDS011;11197;53.110;8.468;2023-04-25T14:29:18;6.65;;;1.10;;
22064;SDS011;11197;53.110;8.468;2023-04-25T14:31:43;5.35;;;1.17;;
22064;SDS011;11197;53.110;8.468;2023-04-25T14:34:10;4.72;;;0.98;;
22064;SDS011;11197;53.110;8.468;2023-04-25T14:36:36;6.75;;;1.23;;
22064;SDS011;11197;53.110;8.468;2023-04-25T14:39:02;6.22;;;1.15;;
22064;SDS011;11197;53.110;8.468;2023-04-25T14:41:30;6.05;;;1.20;;
22064;SDS011;11197;53.110;8.468;2023-04-25T14:43:56;6.75;;;1.23;;
22064;SDS011;11197;53.110;8.468;2023-04-25T14:46:22;5.43;;;1.35;;
22064;SDS011;11197;53.110;8.468;2023-04-25T14:48:48;8.60;;;1.40;;
22064;SDS011;11197;53.110;8.468;2023-04-25T14:51:14;6.93;;;1.50;;
22064;SDS011;11197;53.110;8.468;2023-04-25T14:53:41;5.70;;;1.33;;
22064;SDS011;11197;53.110;8.468;2023-04-25T14:56:07;8.20;;;1.38;;
22064;SDS011;11197;53.110;8.468;2023-04-25T14:58:33;7.47;;;1.45;;
22064;SDS011;11197;53.110;8.468;2023-04-25T15:01:00;8.55;;;1.48;;
22064;SDS011;11197;53.110;8.468;2023-04-25T15:03:26;7.20;;;1.50;;
22064;SDS011;11197;53.110;8.468;2023-04-25T15:05:55;6.05;;;1.90;;
22064;SDS011;11197;53.110;8.468;2023-04-25T15:08:21;7.45;;;1.30;;
22064;SDS011;11197;53.110;8.468;2023-04-25T15:10:47;6.30;;;1.40;;
22064;SDS011;11197;53.110;8.468;2023-04-25T15:13:13;5.82;;;1.27;;
22064;SDS011;11197;53.110;8.468;2023-04-25T15:15:39;6.53;;;1.40;;
22064;SDS011;11197;53.110;8.468;2023-04-25T15:18:05;6.32;;;1.25;;